Time;durP1;ratioP1;P1;durP2;ratioP2;P2;SDS_P1;SDS_P2;PMS_P1;PMS_P2;Temp;Humidity;BMP_temperature;BMP_pressure;BME280_temperature;BME280_humidity;BME280_pressure;Samples;Min_cycle;Max_cycle;Signal;HPM_P1;HPM_P2
2022/10/01 00:01:06;;;;;;;8.10;5.57;;;11.70;99.90;;;;;;5115632;28;20106;-75
2022/10/01 00:03:34;;;;;;;8.23;5.53;;;11.70;99.90;;;;;;5114014;28;20034;-75
2022/10/01 00:06:08;;;;;;;6.38;4.70;;;11.70;99.90;;;;;;5115983;28;20099;-75
2022/10/01 00:08:34;;;;;;;11.48;6.07;;;11.80;99.90;;;;;;5115609;28;20031;-75
2022/10/01 00:11:05;;;;;;;7.35;5.85;;;11.80;99.90;;;;;;5114198;28;20130;-75
2022/10/01 00:13:32;;;;;;;6.32;5.10;;;11.80;99.90;;;;;;5115207;28;20534;-75
2022/10/01 00:15:59;;;;;;;5.85;5.25;;;11.90;99.90;;;;;;5115409;28;20019;-75
2022/10/01 00:18:24;;;;;;;11.43;5.60;;;11.80;99.90;;;;;;5115201;28;20035;-75
2022/10/01 00:20:50;;;;;;;10.13;5.65;;;11.80;99.90;;;;;;5114210;28;20026;-75
2022/10/01 00:23:18;;;;;;;8.10;5.35;;;11.80;99.90;;;;;;5115162;28;20480;-76
2022/10/01 00:25:43;;;;;;;6.50;5.78;;;11.70;99.90;;;;;;5115318;28;20055;-76
2022/10/01 00:28:10;;;;;;;12.18;5.28;;;11.70;99.90;;;;;;5115139;28;20164;-76
2022/10/01 00:30:37;;;;;;;9.27;6.63;;;11.70;99.90;;;;;;5113655;28;20057;-76
2022/10/01 00:33:02;;;;;;;6.22;4.75;;;11.60;99.90;;;;;;5114941;28;20020;-76
2022/10/01 00:35:29;;;;;;;6.15;5.40;;;11.60;99.90;;;;;;5114934;28;20066;-75
2022/10/01 00:37:54;;;;;;;9.30;6.05;;;11.60;99.90;;;;;;5109859;28;20476;-75
2022/10/01 00:40:22;;;;;;;10.77;6.35;;;11.60;99.90;;;;;;5087845;28;20039;-75
2022/10/01 00:42:48;;;;;;;14.63;6.75;;;11.60;99.90;;;;;;5113366;28;20012;-76
2022/10/01 00:45:15;;;;;;;12.40;6.25;;;11.70;99.90;;;;;;5114695;28;20060;-75
2022/10/01 00:47:52;;;;;;;7.70;5.15;;;11.60;99.90;;;;;;5114646;28;20031;-76
2022/10/01 00:50:21;;;;;;;7.05;5.65;;;11.60;99.90;;;;;;5113592;28;20023;-76
2022/10/01 00:52:54;;;;;;;15.75;6.20;;;11.70;99.90;;;;;;5114775;28;20024;-75
2022/10/01 00:55:27;;;;;;;9.32;6.22;;;11.70;99.90;;;;;;5115096;28;20516;-78
2022/10/01 00:57:54;;;;;;;9.00;5.35;;;11.80;99.90;;;;;;5114571;28;20087;-76
2022/10/01 01:00:21;;;;;;;7.72;6.13;;;11.70;99.90;;;;;;5114217;28;20502;-74
2022/10/01 01:02:46;;;;;;;7.72;5.65;;;11.70;99.90;;;;;;5114537;28;20110;-76
2022/10/01 01:05:13;;;;;;;6.50;5.40;;;11.70;99.90;;;;;;5114250;28;20154;-75
2022/10/01 01:07:44;;;;;;;11.95;5.47;;;11.80;99.90;;;;;;5114521;28;20016;-75
2022/10/01 01:10:12;;;;;;;10.00;5.30;;;11.80;99.90;;;;;;5113029;28;20062;-75
2022/10/01 01:13:06;;;;;;;5.53;4.90;;;11.80;99.90;;;;;;5114468;28;20088;-75
2022/10/01 01:15:51;;;;;;;8.05;5.32;;;11.70;99.90;;;;;;5085795;28;20023;-75
2022/10/01 01:18:34;;;;;;;7.32;4.28;;;11.70;99.90;;;;;;5111968;28;20032;-75
2022/10/01 01:21:19;;;;;;;6.03;4.82;;;11.70;99.90;;;;;;5114331;28;20072;-75
2022/10/01 01:24:13;;;;;;;8.35;4.15;;;11.80;99.90;;;;;;5113979;28;20149;-75
2022/10/01 01:27:05;;;;;;;5.43;3.92;;;11.70;99.90;;;;;;5114080;28;20032;-75
2022/10/01 01:30:00;;;;;;;8.52;5.28;;;11.80;99.90;;;;;;5113572;28;20113;-75
2022/10/01 01:32:33;;;;;;;5.47;4.05;;;11.80;99.90;;;;;;5076314;28;20043;-76
2022/10/01 01:35:03;;;;;;;4.15;3.65;;;11.80;99.90;;;;;;5113893;28;20078;-75
2022/10/01 01:37:33;;;;;;;4.63;3.25;;;11.90;99.90;;;;;;5112099;28;20058;-76
2022/10/01 01:40:02;;;;;;;5.93;4.00;;;11.90;99.90;;;;;;5101285;28;20024;-75
2022/10/01 01:42:36;;;;;;;4.03;3.25;;;11.90;99.90;;;;;;5113250;28;20031;-75
2022/10/01 01:45:05;;;;;;;6.70;3.35;;;11.90;99.90;;;;;;5113563;28;20035;-75
2022/10/01 01:47:32;;;;;;;4.93;2.88;;;11.90;99.90;;;;;;5095018;28;20461;-75
2022/10/01 01:50:01;;;;;;;4.07;2.95;;;11.90;99.90;;;;;;5112858;28;20051;-75
2022/10/01 01:52:28;;;;;;;3.45;2.97;;;12.00;99.90;;;;;;5113738;28;20015;-76
2022/10/01 01:54:54;;;;;;;3.00;2.60;;;11.90;99.90;;;;;;5113111;28;20020;-75
2022/10/01 01:57:20;;;;;;;3.60;2.38;;;12.00;99.90;;;;;;5112274;28;20038;-75
2022/10/01 01:59:46;;;;;;;2.65;2.45;;;12.00;99.90;;;;;;5111758;28;20385;-75
2022/10/01 02:02:20;;;;;;;4.28;2.45;;;12.00;99.90;;;;;;5104408;28;20024;-75
2022/10/01 02:05:11;;;;;;;3.33;2.63;;;12.00;99.90;;;;;;5107856;28;20036;-75
2022/10/01 02:07:56;;;;;;;3.33;2.60;;;12.20;99.90;;;;;;5113579;28;20039;-75
2022/10/01 02:10:40;;;;;;;2.92;2.10;;;12.10;99.90;;;;;;5091107;28;20122;-75
2022/10/01 02:13:30;;;;;;;3.10;1.85;;;12.20;99.90;;;;;;5092462;28;20081;-75
2022/10/01 02:16:19;;;;;;;2.85;1.75;;;12.20;99.90;;;;;;5092973;28;20123;-75
2022/10/01 02:19:24;;;;;;;2.55;2.00;;;12.30;99.90;;;;;;5088336;28;20461;-75
2022/10/01 02:22:17;;;;;;;5.28;1.70;;;12.30;99.90;;;;;;4994390;28;20045;-75
2022/10/01 02:24:48;;;;;;;2.00;1.80;;;12.30;99.90;;;;;;5063674;28;20044;-74
2022/10/01 02:27:29;;;;;;;4.80;2.00;;;12.40;99.90;;;;;;5092338;28;20035;-75
2022/10/01 02:30:00;;;;;;;2.00;1.65;;;12.40;99.90;;;;;;5092823;28;20024;-75
2022/10/01 02:32:29;;;;;;;2.00;1.40;;;12.50;99.90;;;;;;5092593;28;20063;-75
2022/10/01 02:34:56;;;;;;;2.53;1.80;;;12.50;99.90;;;;;;5091513;28;20043;-75
2022/10/01 02:37:24;;;;;;;2.13;1.63;;;12.60;99.90;;;;;;5092505;28;20020;-75
2022/10/01 02:39:51;;;;;;;1.98;1.25;;;12.60;99.90;;;;;;5073590;28;20052;-75
2022/10/01 02:42:20;;;;;;;1.88;1.40;;;12.60;99.90;;;;;;5091084;28;20069;-75
2022/10/01 02:44:48;;;;;;;3.72;1.70;;;12.70;99.90;;;;;;5092137;28;20081;-75
2022/10/01 02:47:19;;;;;;;1.92;1.55;;;12.70;99.90;;;;;;5092330;28;20068;-75
2022/10/01 02:49:46;;;;;;;2.17;1.50;;;12.70;99.90;;;;;;5091519;28;20028;-75
2022/10/01 02:52:19;;;;;;;3.00;1.35;;;12.80;99.90;;;;;;5092544;28;20281;-75
2022/10/01 02:54:54;;;;;;;1.80;1.17;;;12.80;99.90;;;;;;5091288;28;20055;-74
2022/10/01 02:57:23;;;;;;;3.15;1.58;;;12.80;99.90;;;;;;5090107;28;20028;-75
2022/10/01 02:59:57;;;;;;;2.33;1.23;;;12.80;99.90;;;;;;5092361;28;20066;-75
2022/10/01 03:02:27;;;;;;;1.55;1.13;;;12.90;99.90;;;;;;5091409;28;20024;-75
2022/10/01 03:04:55;;;;;;;2.92;1.33;;;12.80;99.90;;;;;;5090170;28;20046;-75
2022/10/01 03:07:21;;;;;;;1.67;1.10;;;12.80;99.90;;;;;;5093146;28;20044;-77
2022/10/01 03:09:48;;;;;;;3.10;1.35;;;12.80;99.90;;;;;;5096257;28;20076;-75
2022/10/01 03:12:15;;;;;;;3.22;1.67;;;12.80;99.90;;;;;;5095078;28;20470;-75
2022/10/01 03:14:43;;;;;;;4.43;1.52;;;12.90;99.90;;;;;;5095696;28;20369;-75
2022/10/01 03:17:10;;;;;;;3.17;1.40;;;12.90;99.90;;;;;;5094816;28;20024;-75
2022/10/01 03:19:35;;;;;;;2.35;1.67;;;12.80;99.90;;;;;;5095092;28;20028;-75
2022/10/01 03:22:02;;;;;;;1.77;1.55;;;12.90;99.90;;;;;;5095694;28;20031;-75
2022/10/01 03:24:28;;;;;;;2.03;1.75;;;12.80;99.90;;;;;;5094990;28;20016;-75
2022/10/01 03:26:55;;;;;;;3.33;1.83;;;12.80;99.90;;;;;;5095943;28;20393;-75
2022/10/01 03:29:22;;;;;;;2.38;1.67;;;12.80;99.90;;;;;;5095932;28;20502;-75
2022/10/01 03:31:48;;;;;;;2.65;2.00;;;12.80;99.90;;;;;;5094844;28;20124;-75
2022/10/01 03:34:13;;;;;;;4.85;2.13;;;12.90;99.90;;;;;;5094996;28;20054;-75
2022/10/01 03:36:39;;;;;;;5.93;2.25;;;13.00;99.90;;;;;;5095645;28;20056;-76
2022/10/01 03:39:05;;;;;;;3.03;2.17;;;13.00;99.90;;;;;;5095421;28;20024;-75
2022/10/01 03:41:31;;;;;;;6.75;2.30;;;13.00;99.90;;;;;;5095587;28;20021;-75
2022/10/01 03:43:57;;;;;;;10.68;2.00;;;13.00;99.90;;;;;;5094922;28;20032;-76
2022/10/01 03:46:22;;;;;;;2.42;1.80;;;13.00;99.90;;;;;;5095568;28;20102;-75
2022/10/01 03:48:49;;;;;;;2.15;1.95;;;13.00;99.90;;;;;;5095592;28;20066;-75
2022/10/01 03:51:15;;;;;;;4.63;2.20;;;13.00;99.90;;;;;;5094186;28;20020;-75
2022/10/01 03:53:41;;;;;;;4.40;2.15;;;13.10;99.90;;;;;;5095145;28;20046;-75
2022/10/01 03:56:06;;;;;;;3.35;2.45;;;13.20;99.90;;;;;;5093740;28;20469;-75
2022/10/01 03:58:32;;;;;;;3.80;2.33;;;13.30;99.90;;;;;;5095015;28;20020;-75
2022/10/01 04:00:59;;;;;;;3.30;2.40;;;13.30;99.90;;;;;;5094016;28;20028;-75
2022/10/01 04:03:25;;;;;;;4.63;2.60;;;13.30;99.90;;;;;;5094764;28;20020;-75
2022/10/01 04:05:51;;;;;;;3.40;2.70;;;13.30;99.90;;;;;;5094825;28;20059;-75
2022/10/01 04:08:16;;;;;;;6.15;1.83;;;13.40;99.90;;;;;;5093222;28;20044;-75
2022/10/01 04:10:42;;;;;;;3.17;2.50;;;13.30;99.90;;;;;;5095142;28;20032;-75
2022/10/01 04:13:08;;;;;;;4.53;2.53;;;13.30;99.90;;;;;;5093693;28;20434;-75
2022/10/01 04:15:34;;;;;;;3.85;1.90;;;13.40;99.90;;;;;;5094574;28;20016;-75
2022/10/01 04:18:04;;;;;;;4.20;2.17;;;13.40;99.90;;;;;;5094304;28;20028;-75
2022/10/01 04:20:32;;;;;;;4.28;2.72;;;13.50;99.90;;;;;;5093614;28;20089;-75
2022/10/01 04:22:58;;;;;;;3.25;2.08;;;13.50;99.90;;;;;;5076540;28;20378;-75
2022/10/01 04:25:24;;;;;;;5.05;1.88;;;13.50;99.90;;;;;;5093958;28;20500;-75
2022/10/01 04:27:58;;;;;;;5.07;1.83;;;13.60;99.90;;;;;;5093600;28;20028;-75
2022/10/01 04:30:26;;;;;;;3.85;1.80;;;13.70;99.90;;;;;;5094721;28;20036;-76
2022/10/01 04:32:52;;;;;;;2.45;1.70;;;13.70;99.90;;;;;;5094173;28;20556;-75
2022/10/01 04:35:19;;;;;;;2.97;1.77;;;13.70;99.90;;;;;;5094299;28;20032;-75
2022/10/01 04:37:44;;;;;;;4.35;1.88;;;13.80;99.90;;;;;;5094313;28;20117;-75
2022/10/01 04:40:10;;;;;;;2.60;1.80;;;13.80;99.90;;;;;;5093390;28;20531;-75
2022/10/01 04:42:42;;;;;;;11.15;2.63;;;13.90;99.90;;;;;;5093756;28;20359;-75
2022/10/01 04:45:10;;;;;;;5.85;1.80;;;13.90;99.90;;;;;;5094350;28;20055;-75
2022/10/01 04:47:36;;;;;;;4.15;1.83;;;14.00;99.90;;;;;;5094433;28;20028;-75
2022/10/01 04:50:02;;;;;;;3.58;1.58;;;13.90;99.90;;;;;;5094369;28;20028;-75
2022/10/01 04:52:28;;;;;;;2.92;1.42;;;13.90;99.90;;;;;;5094222;28;20024;-77
2022/10/01 04:54:54;;;;;;;5.70;1.92;;;14.00;99.90;;;;;;5093177;28;20382;-75
2022/10/01 04:57:20;;;;;;;8.25;2.20;;;14.10;99.90;;;;;;5094401;28;20043;-75
2022/10/01 04:59:46;;;;;;;2.83;1.67;;;14.10;99.90;;;;;;5093968;28;20016;-76
2022/10/01 05:02:12;;;;;;;7.07;2.40;;;14.10;99.90;;;;;;5093199;28;20129;-75
2022/10/01 05:04:38;;;;;;;2.60;1.63;;;14.20;99.90;;;;;;5093951;28;20103;-75
2022/10/01 05:07:04;;;;;;;2.78;1.70;;;14.10;99.90;;;;;;5093876;28;20031;-76
2022/10/01 05:09:30;;;;;;;7.30;2.20;;;14.00;99.90;;;;;;5091637;28;20035;-76
2022/10/01 05:11:56;;;;;;;7.13;1.92;;;14.20;99.90;;;;;;5094079;28;20472;-76
2022/10/01 05:14:22;;;;;;;4.47;2.10;;;14.30;99.90;;;;;;5092822;28;20074;-75
2022/10/01 05:16:48;;;;;;;5.90;2.20;;;14.20;99.90;;;;;;5092371;28;20024;-76
2022/10/01 05:19:13;;;;;;;3.45;2.05;;;14.20;99.90;;;;;;5094132;28;20020;-77
2022/10/01 05:21:39;;;;;;;5.43;2.25;;;14.30;99.90;;;;;;5093101;28;20025;-75
2022/10/01 05:24:05;;;;;;;7.28;1.58;;;14.20;99.90;;;;;;5093472;28;20114;-75
2022/10/01 05:26:31;;;;;;;4.05;1.98;;;14.10;99.90;;;;;;5093888;28;20132;-75
2022/10/01 05:28:59;;;;;;;6.13;1.70;;;14.10;99.90;;;;;;5091137;28;20024;-76
2022/10/01 05:31:25;;;;;;;4.28;1.90;;;14.10;99.90;;;;;;5093178;28;20077;-75
2022/10/01 05:33:51;;;;;;;8.02;2.40;;;14.20;99.90;;;;;;5093445;28;20024;-76
2022/10/01 05:36:17;;;;;;;6.55;2.60;;;14.20;99.90;;;;;;5092298;28;20032;-76
2022/10/01 05:38:43;;;;;;;4.78;1.90;;;14.10;99.90;;;;;;5092128;28;20016;-75
2022/10/01 05:41:09;;;;;;;4.28;1.90;;;14.20;99.90;;;;;;5093409;28;20385;-76
2022/10/01 05:43:35;;;;;;;8.07;2.15;;;14.40;99.90;;;;;;5093764;28;20023;-75
2022/10/01 05:46:02;;;;;;;7.25;2.50;;;14.30;99.90;;;;;;5092438;28;20047;-76
2022/10/01 05:48:28;;;;;;;7.25;2.60;;;14.40;99.90;;;;;;5093573;28;20024;-76
2022/10/01 05:50:53;;;;;;;12.15;2.70;;;14.50;99.90;;;;;;5091314;28;20381;-76
2022/10/01 05:53:20;;;;;;;8.40;2.45;;;14.40;99.90;;;;;;5093451;28;20036;-76
2022/10/01 05:55:46;;;;;;;13.25;2.35;;;14.40;99.90;;;;;;5091525;28;20086;-76
2022/10/01 05:58:13;;;;;;;9.10;2.53;;;14.40;99.90;;;;;;5090086;28;20020;-76
2022/10/01 06:00:40;;;;;;;6.97;2.67;;;14.40;99.90;;;;;;5090637;28;20024;-76
2022/10/01 06:03:06;;;;;;;6.05;2.38;;;14.30;99.90;;;;;;5092215;28;20073;-77
2022/10/01 06:05:34;;;;;;;8.18;2.92;;;14.20;99.90;;;;;;5085178;28;20097;-76
2022/10/01 06:08:00;;;;;;;10.95;2.75;;;14.20;99.90;;;;;;5081442;28;20024;-77
2022/10/01 06:10:29;;;;;;;6.57;2.65;;;14.30;99.90;;;;;;5087456;28;20679;-75
2022/10/01 06:13:00;;;;;;;9.35;2.90;;;14.30;99.90;;;;;;5076524;28;20074;-76
2022/10/01 06:15:27;;;;;;;10.18;3.50;;;14.40;99.90;;;;;;5087399;28;20469;-76
2022/10/01 06:17:53;;;;;;;7.75;3.33;;;14.30;99.90;;;;;;5086828;28;20031;-76
2022/10/01 06:20:19;;;;;;;9.13;3.42;;;14.30;99.90;;;;;;5088135;28;20027;-76
2022/10/01 06:22:53;;;;;;;10.23;3.30;;;14.30;99.90;;;;;;5080090;28;20026;-76
2022/10/01 06:25:20;;;;;;;8.95;3.00;;;14.40;99.90;;;;;;5084206;28;20027;-76
2022/10/01 06:27:58;;;;;;;9.05;2.88;;;14.50;99.90;;;;;;5088616;28;20059;-76
2022/10/01 06:30:27;;;;;;;7.90;2.63;;;14.60;99.90;;;;;;5085865;28;20111;-77
2022/10/01 06:33:01;;;;;;;11.00;2.83;;;14.60;99.90;;;;;;5084958;28;20134;-77
2022/10/01 06:35:27;;;;;;;6.60;2.58;;;14.30;99.90;;;;;;5079201;28;20032;-77
2022/10/01 06:37:53;;;;;;;8.48;2.80;;;14.30;99.90;;;;;;5087654;28;20032;-76
2022/10/01 06:40:19;;;;;;;14.75;3.03;;;14.30;99.90;;;;;;5087067;28;20055;-75
2022/10/01 06:42:48;;;;;;;6.72;3.05;;;14.40;99.90;;;;;;5090775;28;20119;-76
2022/10/01 06:45:16;;;;;;;11.57;4.22;;;14.30;99.90;;;;;;5092161;28;20068;-76
2022/10/01 06:47:43;;;;;;;10.45;3.75;;;14.30;99.90;;;;;;5080627;28;20017;-76
2022/10/01 06:50:09;;;;;;;12.63;4.75;;;14.20;99.90;;;;;;5074984;28;20482;-75
2022/10/01 06:52:48;;;;;;;19.92;5.22;;;14.30;99.90;;;;;;5090581;28;20027;-75
2022/10/01 06:55:18;;;;;;;20.90;6.70;;;14.50;99.90;;;;;;5090092;28;20012;-75
2022/10/01 06:57:44;;;;;;;21.00;6.80;;;14.60;99.90;;;;;;5088883;28;20443;-77
2022/10/01 07:00:12;;;;;;;17.38;6.20;;;14.50;99.90;;;;;;5089455;28;20471;-78
2022/10/01 07:02:38;;;;;;;19.75;6.38;;;14.50;99.90;;;;;;5088544;28;20035;-78
2022/10/01 07:05:06;;;;;;;16.13;6.63;;;14.60;99.90;;;;;;5085333;28;20499;-78
2022/10/01 07:07:35;;;;;;;20.17;7.13;;;14.50;99.90;;;;;;5090969;28;20428;-77
2022/10/01 07:10:02;;;;;;;19.40;6.82;;;14.70;99.90;;;;;;5091002;28;20718;-76
2022/10/01 07:12:28;;;;;;;22.33;7.22;;;14.70;99.90;;;;;;5095167;28;20039;-78
2022/10/01 07:14:53;;;;;;;26.10;7.65;;;14.80;99.90;;;;;;5087801;28;20011;-77
2022/10/01 07:17:20;;;;;;;23.83;8.15;;;14.90;99.90;;;;;;5084982;28;20024;-76
2022/10/01 07:19:46;;;;;;;25.67;6.70;;;15.10;99.90;;;;;;5092032;28;20445;-76
2022/10/01 07:22:12;;;;;;;24.65;7.78;;;15.00;99.90;;;;;;5091337;28;20102;-77
2022/10/01 07:24:37;;;;;;;22.50;7.28;;;15.10;99.90;;;;;;5091583;28;20580;-77
2022/10/01 07:27:03;;;;;;;20.75;7.75;;;15.10;99.90;;;;;;5089843;28;20426;-77
2022/10/01 07:29:30;;;;;;;30.42;8.02;;;15.20;99.90;;;;;;5091170;28;20028;-77
2022/10/01 07:31:58;;;;;;;24.20;7.20;;;15.20;99.90;;;;;;5090664;28;20035;-76
2022/10/01 07:34:24;;;;;;;17.70;6.85;;;15.20;99.90;;;;;;5089729;28;20485;-76
2022/10/01 07:36:50;;;;;;;24.90;6.93;;;15.30;99.90;;;;;;5090202;28;20041;-75
2022/10/01 07:39:16;;;;;;;18.00;7.13;;;15.30;99.90;;;;;;5089527;28;20009;-75
2022/10/01 07:41:42;;;;;;;21.52;7.93;;;15.30;99.90;;;;;;5091461;28;20524;-76
2022/10/01 07:44:10;;;;;;;21.00;7.00;;;15.40;99.90;;;;;;5090980;28;20032;-75
2022/10/01 07:46:37;;;;;;;28.25;9.43;;;15.60;99.90;;;;;;5085346;28;20035;-75
2022/10/01 07:49:03;;;;;;;30.23;8.15;;;16.00;99.90;;;;;;5086069;28;20043;-76
2022/10/01 07:51:29;;;;;;;24.45;7.50;;;15.80;99.90;;;;;;5087317;28;20046;-76
2022/10/01 07:53:55;;;;;;;28.52;6.95;;;15.70;99.90;;;;;;5083095;28;20485;-76
2022/10/01 07:56:21;;;;;;;21.02;6.03;;;15.90;99.90;;;;;;5069735;28;20432;-76
2022/10/01 07:58:47;;;;;;;24.85;7.53;;;15.90;99.90;;;;;;5087562;28;20020;-76
2022/10/01 08:01:13;;;;;;;26.30;6.18;;;16.10;99.90;;;;;;5089138;28;20370;-75
2022/10/01 08:03:39;;;;;;;26.17;6.57;;;16.10;99.90;;;;;;5088957;28;20477;-75
2022/10/01 08:06:05;;;;;;;20.63;6.20;;;16.10;99.90;;;;;;5087934;28;20039;-76
2022/10/01 08:08:31;;;;;;;24.35;5.85;;;16.20;99.90;;;;;;5087311;28;20090;-75
2022/10/01 08:11:00;;;;;;;23.58;5.47;;;16.30;99.90;;;;;;5090822;28;20410;-76
2022/10/01 08:13:26;;;;;;;26.67;5.85;;;16.40;99.90;;;;;;5087991;28;20103;-75
2022/10/01 08:15:53;;;;;;;17.67;4.82;;;16.50;99.90;;;;;;5089893;28;20531;-75
2022/10/01 08:18:21;;;;;;;23.90;3.75;;;16.30;99.90;;;;;;5054712;28;20474;-75
2022/10/01 08:20:47;;;;;;;25.88;5.70;;;16.20;99.90;;;;;;5076313;28;20494;-76
2022/10/01 08:23:15;;;;;;;17.42;4.50;;;16.30;99.90;;;;;;5088855;28;20055;-75
2022/10/01 08:25:43;;;;;;;18.00;4.25;;;16.20;99.90;;;;;;5088132;28;20461;-77
2022/10/01 08:28:10;;;;;;;14.18;3.85;;;16.40;99.90;;;;;;5089223;28;20020;-76
2022/10/01 08:30:38;;;;;;;23.33;4.30;;;16.30;99.90;;;;;;5091992;28;20030;-76
2022/10/01 08:33:05;;;;;;;22.15;4.28;;;16.10;99.90;;;;;;5092631;28;20466;-76
2022/10/01 08:35:31;;;;;;;21.50;3.95;;;16.30;99.90;;;;;;5094278;28;20452;-75
2022/10/01 08:38:01;;;;;;;23.42;4.60;;;16.40;99.90;;;;;;5094315;28;20497;-75
2022/10/01 08:40:28;;;;;;;14.68;4.13;;;16.40;99.90;;;;;;5093233;28;20441;-75
2022/10/01 08:43:05;;;;;;;23.60;4.95;;;16.50;99.90;;;;;;5093907;28;20358;-75
2022/10/01 08:45:51;;;;;;;29.73;4.25;;;17.00;99.90;;;;;;5094137;28;20043;-76
2022/10/01 08:48:41;;;;;;;23.27;5.43;;;17.10;99.90;;;;;;5094276;28;20541;-76
2022/10/01 08:51:27;;;;;;;27.10;4.20;;;17.00;99.90;;;;;;5093534;28;20073;-77
2022/10/01 08:54:23;;;;;;;17.20;3.55;;;17.20;99.90;;;;;;5094194;28;20040;-75
2022/10/01 08:56:49;;;;;;;28.23;5.20;;;17.10;99.90;;;;;;5083516;28;20103;-75
2022/10/01 08:59:30;;;;;;;18.25;3.95;;;17.00;99.90;;;;;;5093823;28;20024;-75
2022/10/01 09:01:57;;;;;;;15.35;3.90;;;17.00;99.90;;;;;;5094249;28;20016;-75
2022/10/01 09:04:27;;;;;;;25.63;4.80;;;17.10;99.90;;;;;;5092596;28;20057;-76
2022/10/01 09:07:13;;;;;;;21.20;4.05;;;17.40;99.90;;;;;;5093607;28;20110;-75
2022/10/01 09:09:46;;;;;;;20.25;4.57;;;17.30;99.90;;;;;;5092919;28;20028;-76
2022/10/01 09:12:21;;;;;;;20.40;3.28;;;17.40;99.90;;;;;;5093880;28;20036;-76
2022/10/01 09:14:55;;;;;;;20.65;4.15;;;17.60;99.90;;;;;;5094124;28;20480;-75
2022/10/01 09:17:36;;;;;;;15.40;3.65;;;17.60;99.90;;;;;;5093816;28;20450;-76
2022/10/01 09:20:10;;;;;;;19.67;3.00;;;17.40;99.90;;;;;;5092773;28;20027;-76
2022/10/01 09:22:50;;;;;;;15.40;2.75;;;17.40;99.90;;;;;;5094126;28;20346;-76
2022/10/01 09:25:23;;;;;;;18.65;3.97;;;17.40;99.90;;;;;;5095109;28;20054;-75
2022/10/01 09:28:01;;;;;;;15.23;3.47;;;17.60;99.90;;;;;;5088200;28;20028;-76
2022/10/01 09:30:28;;;;;;;18.15;3.58;;;17.60;99.90;;;;;;5092335;28;20024;-75
2022/10/01 09:33:02;;;;;;;19.25;3.40;;;17.60;99.90;;;;;;5093537;28;20028;-75
2022/10/01 09:35:46;;;;;;;17.45;3.70;;;17.50;99.90;;;;;;5100168;28;20042;-75
2022/10/01 09:38:19;;;;;;;17.35;3.90;;;17.60;99.90;;;;;;5112670;28;20016;-76
2022/10/01 09:40:56;;;;;;;17.02;3.60;;;17.50;99.90;;;;;;5110166;28;20027;-75
2022/10/01 09:43:25;;;;;;;19.13;3.45;;;17.60;99.90;;;;;;5110345;28;20023;-75
2022/10/01 09:45:51;;;;;;;27.50;4.32;;;17.60;99.90;;;;;;5106668;28;20071;-76
2022/10/01 09:48:27;;;;;;;17.17;3.53;;;17.80;99.90;;;;;;5098408;28;20039;-78
2022/10/01 09:50:58;;;;;;;16.25;3.15;;;17.90;99.90;;;;;;5095938;28;20111;-75
2022/10/01 09:53:34;;;;;;;16.02;2.85;;;18.00;99.90;;;;;;5089511;28;20031;-75
2022/10/01 09:56:28;;;;;;;15.05;3.47;;;18.20;99.90;;;;;;5092250;28;20481;-76
2022/10/01 09:59:00;;;;;;;16.20;3.13;;;18.20;99.90;;;;;;5089991;28;20097;-75
2022/10/01 10:01:45;;;;;;;14.80;2.92;;;17.90;99.90;;;;;;5092108;28;20020;-75
2022/10/01 10:04:16;;;;;;;22.27;3.80;;;17.80;99.90;;;;;;5092352;28;20088;-75
2022/10/01 10:06:45;;;;;;;17.85;3.00;;;17.80;99.90;;;;;;5084460;28;20040;-75
2022/10/01 10:09:17;;;;;;;11.15;2.17;;;17.70;99.90;;;;;;5098980;28;20473;-76
2022/10/01 10:11:43;;;;;;;;;;;18.00;99.90;;;;;;5091103;28;20110;-74
2022/10/01 10:14:29;;;;;;;20.77;3.45;;;18.10;99.90;;;;;;5092281;28;19947;-75
2022/10/01 10:16:56;;;;;;;17.52;3.30;;;18.20;99.90;;;;;;5091233;28;20384;-75
2022/10/01 10:19:26;;;;;;;20.83;4.50;;;18.00;99.90;;;;;;5103411;28;20057;-75
2022/10/01 10:21:56;;;;;;;20.15;3.05;;;18.10;99.90;;;;;;5092333;28;20039;-75
2022/10/01 10:24:33;;;;;;;20.35;4.13;;;18.00;99.90;;;;;;5091232;28;20016;-76
2022/10/01 10:27:03;;;;;;;17.25;3.30;;;18.30;99.90;;;;;;5092174;28;20043;-76
2022/10/01 10:29:34;;;;;;;18.77;3.83;;;17.90;99.90;;;;;;5092134;28;20024;-75
2022/10/01 10:32:27;;;;;;;20.70;3.40;;;18.10;99.90;;;;;;5083355;28;20683;-75
2022/10/01 10:34:57;;;;;;;23.42;4.47;;;18.20;99.90;;;;;;5081712;28;20397;-76
2022/10/01 10:37:27;;;;;;;;;;;18.20;99.90;;;;;;5093722;28;20044;-75
2022/10/01 10:39:53;;;;;;;15.60;3.10;;;17.80;99.90;;;;;;5086416;28;20377;-72
2022/10/01 10:42:21;;;;;;;15.93;3.10;;;17.80;99.90;;;;;;5085723;28;20385;-76
2022/10/01 10:44:50;;;;;;;21.40;3.55;;;18.10;99.90;;;;;;5088386;28;20062;-77
2022/10/01 10:47:18;;;;;;;27.75;3.50;;;18.00;99.90;;;;;;5087155;28;20138;-75
2022/10/01 10:50:00;;;;;;;11.07;2.33;;;18.40;99.90;;;;;;5093740;28;20028;-75
2022/10/01 10:52:36;;;;;;;16.00;3.30;;;18.20;99.90;;;;;;5092187;28;20031;-76
2022/10/01 10:55:23;;;;;;;17.42;2.78;;;18.30;99.90;;;;;;5084213;28;20305;-75
2022/10/01 10:57:50;;;;;;;14.38;3.58;;;18.90;99.90;;;;;;5087238;28;20020;-75
2022/10/01 11:00:19;;;;;;;17.05;2.60;;;19.00;99.90;;;;;;5082309;28;20075;-75
2022/10/01 11:02:54;;;;;;;12.20;3.10;;;19.40;99.90;;;;;;5087809;28;20020;-75
2022/10/01 11:05:24;;;;;;;15.57;3.67;;;19.50;99.90;;;;;;5087953;28;20068;-74
2022/10/01 11:07:56;;;;;;;14.65;2.85;;;19.70;99.90;;;;;;5087400;28;20028;-75
2022/10/01 11:10:21;;;;;;;16.48;3.25;;;20.40;99.90;;;;;;5088051;28;20032;-75
2022/10/01 11:13:13;;;;;;;23.60;3.20;;;20.50;99.90;;;;;;5087902;28;20469;-75
2022/10/01 11:15:57;;;;;;;15.35;3.42;;;20.80;99.90;;;;;;5087044;28;20067;-75
2022/10/01 11:19:00;;;;;;;14.18;2.92;;;21.10;99.90;;;;;;5088969;28;20024;-75
2022/10/01 11:21:47;;;;;;;11.82;2.92;;;20.80;99.90;;;;;;5092092;28;20055;-75
2022/10/01 11:24:46;;;;;;;14.77;3.10;;;21.00;99.90;;;;;;5092010;28;20050;-75
2022/10/01 11:27:31;;;;;;;17.17;3.05;;;20.50;99.90;;;;;;5088625;28;20374;-75
2022/10/01 11:30:35;;;;;;;19.67;3.15;;;20.70;99.90;;;;;;5093883;28;20107;-76
2022/10/01 11:33:14;;;;;;;12.27;2.78;;;20.40;99.90;;;;;;5079050;28;20043;-75
2022/10/01 11:36:13;;;;;;;16.63;2.65;;;20.70;99.90;;;;;;5095003;28;20040;-75
2022/10/01 11:39:12;;;;;;;13.38;3.10;;;21.70;99.90;;;;;;5069732;28;20055;-75
2022/10/01 11:41:59;;;;;;;11.30;2.53;;;21.90;99.90;;;;;;5089755;28;20026;-75
2022/10/01 11:44:31;;;;;;;16.00;2.78;;;22.30;98.50;;;;;;5092973;28;20032;-75
2022/10/01 11:47:22;;;;;;;7.53;1.95;;;22.30;99.10;;;;;;5093540;28;20040;-75
2022/10/01 11:50:12;;;;;;;18.80;2.63;;;21.30;99.50;;;;;;5093714;28;20036;-75
2022/10/01 11:52:51;;;;;;;12.23;2.55;;;22.30;98.60;;;;;;5094555;28;20286;-76
2022/10/01 11:58:51;;;;;;;14.25;2.75;;;21.80;98.60;;;;;;5093903;28;20054;-75
2022/10/01 12:01:26;;;;;;;12.52;2.83;;;21.60;99.50;;;;;;5094792;28;20350;-74
2022/10/01 12:03:52;;;;;;;16.25;3.15;;;22.10;99.10;;;;;;5094312;28;20032;-74
2022/10/01 12:06:48;;;;;;;14.18;2.75;;;22.00;99.30;;;;;;5094377;28;20044;-76
2022/10/01 12:09:23;;;;;;;9.55;2.15;;;22.60;98.40;;;;;;5091168;28;20096;-75
2022/10/01 12:11:57;;;;;;;16.42;3.17;;;23.30;97.40;;;;;;5093419;28;20084;-75
2022/10/01 12:14:43;;;;;;;9.38;2.22;;;22.40;97.70;;;;;;5094358;28;20028;-76
2022/10/01 12:17:17;;;;;;;5.88;1.92;;;22.30;98.80;;;;;;5095508;28;20016;-75
2022/10/01 12:19:47;;;;;;;14.05;2.53;;;22.60;97.50;;;;;;5092115;28;20028;-75
2022/10/01 12:22:32;;;;;;;13.20;2.75;;;22.10;98.30;;;;;;5079072;28;20024;-76
2022/10/01 12:24:58;;;;;;;13.02;2.80;;;23.00;97.60;;;;;;5104301;22;20024;-71
2022/10/01 12:27:46;;;;;;;12.90;2.63;;;23.50;97.40;;;;;;5046184;28;20482;-72
2022/10/01 12:30:19;;;;;;;10.77;3.03;;;23.20;96.50;;;;;;5067266;28;20027;-71
2022/10/01 12:33:07;;;;;;;17.00;2.90;;;22.40;97.90;;;;;;5067401;28;20020;-72
2022/10/01 12:36:05;;;;;;;12.85;2.80;;;23.10;96.70;;;;;;5068893;28;20036;-71
2022/10/01 12:39:01;;;;;;;8.32;1.92;;;23.40;97.30;;;;;;5068350;28;20040;-71
2022/10/01 12:41:45;;;;;;;9.80;2.40;;;23.60;96.80;;;;;;5068235;28;20012;-71
2022/10/01 12:44:44;;;;;;;7.65;2.03;;;23.10;95.90;;;;;;5069304;28;20032;-71
2022/10/01 12:47:38;;;;;;;14.18;2.55;;;21.70;97.50;;;;;;5068509;28;20488;-70
2022/10/01 12:50:24;;;;;;;10.77;2.13;;;21.20;99.20;;;;;;5067188;28;20025;-70
2022/10/01 12:53:16;;;;;;;13.85;2.65;;;20.60;99.90;;;;;;5068795;28;20035;-71
2022/10/01 12:55:57;;;;;;;11.45;2.40;;;20.70;99.90;;;;;;5069344;28;20036;-71
2022/10/01 12:58:42;;;;;;;10.25;2.50;;;20.80;99.80;;;;;;5067693;28;20524;-71
2022/10/01 13:01:33;;;;;;;10.20;2.25;;;21.20;99.10;;;;;;5062871;28;20032;-72
2022/10/01 13:04:07;;;;;;;12.82;2.03;;;21.40;98.80;;;;;;5051012;28;20383;-70
2022/10/01 13:07:16;;;;;;;11.90;2.50;;;21.20;98.10;;;;;;5068618;28;20044;-69
2022/10/01 13:10:01;;;;;;;14.38;2.67;;;20.60;99.90;;;;;;5068860;28;20036;-74
2022/10/01 13:12:46;;;;;;;13.98;3.10;;;20.60;99.90;;;;;;5067423;28;20041;-72